Terminal Aerodrome Forecast
Issued by NWS Grand Rapids, MI

Home | Current Version | Previous Version | Text Only | Print | Product List | Glossary On
Versions: 1 2 3 4 5 6 7 8 9 10 11 12 13 14 15 16 17 18 19 20 21 22 23 24 25 26 27 28 29 30 31 32 33 34 35 36 37
000
FTUS43 KGRR 161300 AAC
TAFGRR
TAF AMD
KGRR 161300Z 1613/1712 06008KT 5SM -SN BR OVC007
     FM161400 06008KT P6SM VCSH OVC008
     FM161500 08008KT P6SM VCSH OVC015
     FM161800 09007KT P6SM OVC015=

USA.gov is the U.S. government's official web portal to all federal, state and local government web resources and services.